Latest Weather Observations for Gabo Island

IDV60801

Issued at 6:02 pm EST Sunday 26 April 2015 (issued every 30 minutes, with the page automatically refreshed every 10 minutes)

About weather observations | Map of weather stations | Latest weather observations for VIC | Other Formats
Station Details ID: 084016 Name: GABO ISLAND LIGHTHOUSE Lat: -37.57 Lon: 149.92 Height: 15.2 m
Data from the previous 72 hours. | See also: Recent months at Gabo Island
Date/Time
EST
Temp
°C
App
Temp
°C
Dew
Point
Rel
Hum
%
Delta-T
°C
Wind Press
QNH
hPa
Press
MSL
hPa
Rain
since 9 am
mm
Dir
 
Spd
km/h
Gust
km/h
Spd
kts
Gust
kts
26/06:00pm 13.5 6.1 10.0 79 1.8 W 39 50 21 27 1014.3 1014.2 2.4
26/05:30pm 13.6 4.1 9.7 77 2.0 WSW 50 61 27 33 1013.7 - 2.4
26/05:00pm 13.5 3.4 10.4 81 1.6 WSW 54 65 29 35 1013.3 - 2.4
26/04:30pm 13.8 4.6 9.5 75 2.2 W 48 59 26 32 1013.1 - 2.4
26/04:03pm 13.8 4.9 9.1 73 2.4 W 46 65 25 35 1012.9 - 2.4
26/04:00pm 13.8 5.4 9.5 75 2.2 W 44 57 24 31 1012.8 - 2.4
26/03:30pm 13.7 4.0 9.2 74 2.3 W 50 69 27 37 1012.6 - 2.4
26/03:25pm 13.6 3.9 9.1 74 2.3 WSW 50 69 27 37 1012.6 - 2.4
26/03:00pm 13.9 3.7 10.0 77 2.0 WSW 54 67 29 36 1012.4 1012.3 2.4
26/02:32pm 14.1 4.8 10.7 80 1.8 WSW 50 69 27 37 1012.2 - 2.4
26/02:30pm 14.1 4.4 10.5 79 1.9 WSW 52 69 28 37 1012.1 - 2.4
26/02:24pm 13.7 4.4 10.4 80 1.7 WSW 50 69 27 37 1012.2 - 2.4
26/02:00pm 13.8 4.3 11.0 83 1.5 WSW 52 65 28 35 1012.0 - 2.4
26/01:30pm 13.8 3.6 11.4 85 1.3 WSW 56 67 30 36 1011.5 - 2.4
26/01:00pm 13.9 4.8 12.6 92 0.7 WSW 52 65 28 35 1011.5 - 2.0
26/12:30pm 14.6 7.8 13.2 91 0.8 WSW 41 54 22 29 1011.5 - 0.6
26/12:00pm 16.3 8.5 11.3 72 2.7 SW 43 52 23 28 1011.2 1011.2 0.0
26/11:53am 16.2 8.3 11.6 74 2.5 SW 44 52 24 28 1011.2 - 0.0
26/11:30am 17.3 10.0 11.6 69 3.1 SSW 41 50 22 27 1011.2 - 0.0
26/11:00am 17.5 10.4 10.8 65 3.6 S 39 48 21 26 1011.2 - 0.0
26/10:30am 17.5 9.1 11.0 65 3.5 S 46 54 25 29 1011.1 - 0.0
26/10:00am 17.3 9.8 12.0 71 2.9 SSW 43 52 23 28 1010.9 - 0.0
26/09:30am 17.1 9.5 12.4 74 2.6 S 44 52 24 28 1010.8 - 0.0
26/09:00am 16.5 9.5 13.7 83 1.6 S 43 50 23 27 1010.6 1010.6 10.2
26/08:30am 16.0 8.4 13.7 86 1.3 S 46 63 25 34 1010.3 - 10.2
26/08:08am 14.8 8.3 14.1 96 0.4 S 41 59 22 32 1010.1 - 10.0
26/08:00am 16.3 9.2 14.0 86 1.3 S 44 54 24 29 1009.9 - 9.2
26/07:30am 16.2 9.7 14.1 87 1.2 S 41 54 22 29 1009.6 - 9.2
26/07:00am 16.1 8.3 14.0 87 1.2 S 48 57 26 31 1009.0 - 9.2
26/06:30am 16.2 8.7 13.9 86 1.3 S 46 56 25 30 1008.3 - 9.2
26/06:00am 15.9 9.1 14.3 90 0.9 S 43 54 23 29 1007.9 1007.9 9.2
26/05:30am 15.9 8.3 14.7 93 0.7 S 48 57 26 31 1007.6 - 9.0
26/05:07am 16.2 8.9 14.5 90 1.0 S 46 65 25 35 1007.4 - 6.4
26/05:00am 16.2 9.9 14.5 90 1.0 S 41 48 22 26 1007.3 - 6.4
26/04:50am 16.1 9.7 14.2 88 1.1 S 41 44 22 24 1007.2 - 6.4
26/04:30am 13.8 11.0 13.1 96 0.4 W 20 43 11 23 1007.3 - 6.4
26/04:00am 13.7 7.2 13.0 96 0.4 W 39 46 21 25 1007.2 - 4.2
26/03:30am 13.8 7.7 12.9 94 0.5 W 37 46 20 25 1007.2 - 3.4
26/03:00am 14.3 7.5 13.0 92 0.7 WSW 41 50 22 27 1007.5 1007.5 1.8
26/02:30am 14.3 8.5 12.8 91 0.8 WSW 35 46 19 25 1007.5 - 0.8
26/02:00am 14.0 8.4 12.2 89 1.0 W 33 43 18 23 1007.7 - 0.6
26/01:30am 14.0 8.4 12.2 89 1.0 W 33 43 18 23 1007.8 - 0.6
26/01:00am 14.3 8.9 12.7 90 0.9 WSW 33 43 18 23 1007.9 - 0.6
26/12:30am 14.2 9.0 12.9 92 0.7 WSW 32 37 17 20 1007.9 - 0.6
26/12:00am 14.3 9.9 12.8 91 0.8 W 28 35 15 19 1007.9 1008.0 0.6
 
Date/Time
EST
Temp
°C
App
Temp
°C
Dew
Point
Rel
Hum
%
Delta-T
°C
Wind Press
QNH
hPa
Press
MSL
hPa
Rain
since 9 am
mm
Dir
 
Spd
km/h
Gust
km/h
Spd
kts
Gust
kts
25/11:30pm 13.7 9.9 13.5 99 0.1 W 26 30 14 16 1008.2 - 0.6
25/11:00pm 14.2 9.9 13.3 94 0.5 W 28 35 15 19 1008.5 - 0.6
25/10:30pm 14.1 10.9 13.2 94 0.5 W 22 30 12 16 1008.6 - 0.6
25/10:00pm 14.1 11.2 13.0 93 0.6 W 20 30 11 16 1008.9 - 0.6
25/09:30pm 14.2 11.1 13.3 94 0.5 WNW 22 30 12 16 1008.8 - 0.6
25/09:00pm 14.6 11.1 13.3 92 0.7 W 24 32 13 17 1008.4 1008.5 0.4
25/08:30pm 14.5 11.6 12.9 90 0.9 W 20 26 11 14 1008.7 - 0.0
25/08:00pm 14.4 11.0 12.6 89 1.0 W 22 26 12 14 1008.6 - 0.0
25/07:30pm 14.3 11.5 12.5 89 1.0 WNW 19 24 10 13 1008.7 - 0.0
25/07:00pm 14.7 11.3 12.5 87 1.2 W 22 30 12 16 1008.7 - 0.0
25/06:30pm 16.0 12.5 13.5 85 1.4 SW 24 30 13 16 1008.3 - 0.0
25/06:00pm 15.8 12.0 12.3 80 1.9 WSW 24 28 13 15 1008.0 1007.9 0.0
25/05:30pm 16.0 11.9 12.8 81 1.8 WSW 26 33 14 18 1007.5 - 0.0
25/05:00pm 15.9 9.4 12.8 82 1.7 WSW 39 46 21 25 1007.3 - 0.0
25/04:30pm 16.9 9.7 13.2 79 2.1 SW 43 50 23 27 1007.0 - 0.0
25/04:00pm 17.5 13.5 14.2 81 1.9 SSW 28 32 15 17 1007.0 - 0.0
25/03:30pm 17.5 14.0 14.4 82 1.8 SSW 26 32 14 17 1007.0 - 0.0
25/03:00pm 17.7 14.1 14.2 80 2.0 SSW 26 32 14 17 1006.9 1006.9 0.0
25/02:30pm 17.8 14.5 14.0 78 2.2 SSW 24 28 13 15 1006.8 - 0.0
25/02:00pm 18.0 15.5 14.2 78 2.2 SSW 20 24 11 13 1006.6 - 0.0
25/01:30pm 18.2 15.7 14.2 77 2.3 SSW 20 26 11 14 1006.6 - 0.0
25/01:00pm 18.2 15.8 13.8 75 2.5 SSW 19 20 10 11 1006.9 - 0.0
25/12:30pm 18.5 16.5 13.8 74 2.7 SW 17 20 9 11 1007.4 - 0.0
25/12:00pm 19.1 17.9 14.1 73 2.9 WSW 13 17 7 9 1007.6 1007.6 0.0
25/11:30am 19.2 17.6 13.8 71 3.1 WSW 15 17 8 9 1007.8 - 0.0
25/11:00am 18.8 16.6 13.3 70 3.1 W 17 19 9 10 1007.9 - 0.0
25/10:30am 18.7 16.9 13.4 71 3.0 W 15 20 8 11 1007.8 - 0.0
25/10:00am 18.0 15.9 13.6 75 2.5 WNW 17 20 9 11 1007.8 - 0.0
25/09:30am 17.1 15.1 13.9 81 1.8 W 17 20 9 11 1007.7 - 0.0
25/09:00am 16.8 15.4 14.5 86 1.3 WNW 15 19 8 10 1007.5 1007.4 0.0
25/08:30am 16.2 14.7 14.1 87 1.2 WNW 15 19 8 10 1007.3 - 0.0
25/08:00am 15.5 14.3 14.1 91 0.8 WNW 13 17 7 9 1007.1 - 0.0
25/07:30am 14.9 13.2 13.7 92 0.7 WNW 15 17 8 9 1006.8 - 0.0
25/07:00am 14.3 12.8 13.2 93 0.6 W 13 17 7 9 1006.6 - 0.0
25/06:30am 14.3 12.1 13.2 93 0.6 WNW 17 22 9 12 1006.5 - 0.0
25/06:00am 14.0 11.6 12.7 92 0.7 WNW 17 20 9 11 1006.2 1006.2 0.0
25/05:30am 13.9 11.9 12.8 93 0.6 WNW 15 17 8 9 1006.0 - 0.0
25/05:00am 14.1 11.5 13.2 94 0.5 WNW 19 22 10 12 1005.9 - 0.0
25/04:30am 14.1 13.1 13.4 96 0.4 WNW 11 15 6 8 1005.9 - 0.0
25/04:00am 14.6 13.3 13.7 94 0.5 WNW 13 15 7 8 1005.7 - 0.0
25/03:30am 15.2 13.0 14.3 94 0.5 W 19 22 10 12 1005.4 - 0.0
25/03:00am 15.0 13.5 14.1 94 0.5 W 15 17 8 9 1005.4 1005.5 0.0
25/02:30am 15.2 14.1 14.3 94 0.5 W 13 17 7 9 1005.6 - 0.0
25/02:00am 15.1 14.3 14.0 93 0.6 W 11 17 6 9 1005.4 - 0.0
25/01:30am 14.8 13.8 13.5 92 0.7 WNW 11 15 6 8 1005.2 - 0.0
25/01:00am 14.2 13.5 13.3 94 0.5 NW 9 13 5 7 1005.2 - 0.0
25/12:30am 14.6 14.8 14.2 97 0.2 WNW 6 7 3 4 1005.2 - 0.0
25/12:00am 15.3 14.9 14.2 93 0.6 WSW 9 11 5 6 1005.0 1005.0 0.0
 
Date/Time
EST
Temp
°C
App
Temp
°C
Dew
Point
Rel
Hum
%
Delta-T
°C
Wind Press
QNH
hPa
Press
MSL
hPa
Rain
since 9 am
mm
Dir
 
Spd
km/h
Gust
km/h
Spd
kts
Gust
kts
24/11:30pm 15.1 14.4 14.2 94 0.5 W 11 13 6 7 1005.0 - 0.0
24/11:00pm 15.0 14.5 14.8 99 0.1 W 11 13 6 7 1004.8 - 0.0
24/10:30pm 15.2 14.3 14.9 98 0.2 W 13 15 7 8 1004.6 - 0.0
24/10:00pm 15.3 14.5 14.1 92 0.7 W 11 15 6 8 1004.8 - 0.0
24/09:30pm 15.3 15.4 14.4 94 0.5 WNW 7 9 4 5 1004.7 - 0.0
24/09:00pm 15.8 16.1 14.9 94 0.5 NNE 7 9 4 5 1004.6 1004.5 0.0
24/08:30pm 16.2 16.1 15.0 93 0.7 N 9 11 5 6 1004.5 - 0.0
24/08:00pm 16.2 15.7 14.8 91 0.8 N 11 13 6 7 1004.2 - 0.0
24/07:30pm 16.0 15.5 14.8 93 0.7 N 11 11 6 6 1004.0 - 0.0
24/07:00pm 16.5 16.1 15.3 93 0.7 N 11 13 6 7 1004.1 - 0.0
24/06:30pm 16.4 16.7 14.5 88 1.1 WSW 6 9 3 5 1003.9 - 0.0
24/06:00pm 16.9 17.5 15.2 90 1.0 WNW 6 7 3 4 1003.7 1003.7 0.0
24/05:30pm 17.1 17.0 15.0 87 1.2 W 9 9 5 5 1003.5 - 0.0
24/05:00pm 17.4 16.4 14.5 83 1.7 WSW 13 13 7 7 1003.2 - 0.0
24/04:30pm 17.6 16.3 14.7 83 1.7 WSW 15 20 8 11 1003.1 - 0.0
24/04:00pm 17.8 16.3 15.2 85 1.5 WSW 17 20 9 11 1002.9 - 0.0
24/03:30pm 17.9 16.4 15.2 84 1.6 WSW 17 20 9 11 1002.7 - 0.0
24/03:00pm 18.0 16.9 15.3 84 1.6 W 15 19 8 10 1002.7 1002.7 0.0
24/02:30pm 18.1 16.7 15.6 85 1.5 W 17 20 9 11 1002.9 - 0.0
24/02:00pm 18.2 17.1 16.4 89 1.1 WSW 17 22 9 12 1003.3 - 0.0
24/01:30pm 17.9 15.7 15.9 88 1.2 SW 22 24 12 13 1003.2 - 0.0
24/01:00pm 18.0 15.6 15.3 84 1.6 SW 22 26 12 14 1003.4 - 0.0
24/12:30pm 18.6 18.7 15.6 83 1.8 SW 9 11 5 6 1003.5 - 0.0
24/12:00pm 18.1 18.2 15.4 84 1.6 SW 9 11 5 6 1003.6 1003.6 0.0
24/11:30am 18.4 18.6 15.7 84 1.6 SW 9 11 5 6 1003.7 - 0.0
24/11:00am 18.4 18.2 15.7 84 1.6 W 11 17 6 9 1003.9 - 0.0
24/10:30am 18.9 17.1 15.9 83 1.8 NNE 20 26 11 14 1003.7 - 0.0
24/10:00am 18.2 18.5 16.0 87 1.3 NNE 9 13 5 7 1004.1 - 0.0
24/09:30am 17.8 18.4 15.9 89 1.1 N 7 11 4 6 1004.4 - 0.0
24/09:00am 17.4 17.8 15.2 87 1.3 NNE 7 9 4 5 1004.6 1004.6 0.2
24/08:30am 17.1 16.6 15.0 87 1.2 NNE 11 13 6 7 1004.9 - 0.2
24/08:00am 16.4 15.9 15.0 91 0.8 NNE 11 15 6 8 1005.2 - 0.2
24/07:30am 16.2 16.2 15.2 94 0.6 NNE 9 11 5 6 1005.2 - 0.2
24/07:00am 14.7 16.0 14.2 97 0.3 CALM 0 0 0 0 1005.1 - 0.2
24/06:30am 14.5 14.7 14.1 97 0.2 WNW 6 7 3 4 1005.2 - 0.2
24/06:00am 14.5 14.4 14.0 97 0.3 NE 7 9 4 5 1005.3 1005.4 0.2
24/05:30am 14.2 14.1 14.0 99 0.1 N 7 7 4 4 1005.5 - 0.2
24/05:00am 15.0 14.8 14.7 98 0.2 WNW 9 11 5 6 1005.9 - 0.2
24/04:30am 15.1 15.0 14.9 99 0.1 WNW 9 11 5 6 1006.0 - 0.2
24/04:00am 15.5 15.4 15.0 97 0.3 NNW 9 13 5 7 1006.2 - 0.0
24/03:30am 15.3 14.0 14.8 97 0.3 WNW 15 20 8 11 1006.4 - 0.0
24/03:00am 15.8 15.0 15.1 96 0.4 WNW 13 15 7 8 1006.6 1006.7 0.0
24/02:30am 16.0 14.4 15.0 94 0.6 NW 17 20 9 11 1007.0 - 0.0
24/02:00am 16.1 14.6 15.2 94 0.5 WNW 17 20 9 11 1007.3 - 0.0
24/01:30am 16.0 14.7 15.7 98 0.2 WNW 17 22 9 12 1007.8 - 0.0
24/01:00am 16.1 15.5 15.6 97 0.3 WNW 13 17 7 9 1008.0 - 0.0
24/12:30am 16.4 15.4 15.7 96 0.4 WNW 15 17 8 9 1008.5 - 0.0
24/12:00am 16.9 16.5 16.2 96 0.4 WNW 13 15 7 8 1008.6 1008.7 0.0
 
Date/Time
EST
Temp
°C
App
Temp
°C
Dew
Point
Rel
Hum
%
Delta-T
°C
Wind Press
QNH
hPa
Press
MSL
hPa
Rain
since 9 am
mm
Dir
 
Spd
km/h
Gust
km/h
Spd
kts
Gust
kts
23/11:30pm 17.0 16.6 16.3 96 0.4 WNW 13 17 7 9 1009.0 - 0.0
23/11:00pm 17.3 17.1 16.6 96 0.4 WNW 13 17 7 9 1009.6 - 0.0
23/10:30pm 17.3 17.1 16.6 96 0.4 W 13 15 7 8 1010.0 - 0.0
23/10:00pm 17.5 17.3 16.7 95 0.5 W 13 17 7 9 1010.4 - 0.0
23/09:30pm 17.8 18.4 16.8 94 0.6 NW 9 13 5 7 1010.7 - 0.0
23/09:00pm 18.1 19.7 16.9 93 0.7 NW 4 13 2 7 1010.9 1010.9 0.0
23/08:30pm 18.4 18.0 17.1 92 0.8 SSE 15 20 8 11 1011.0 - 0.0
23/08:00pm 18.5 17.8 17.3 93 0.7 S 17 20 9 11 1011.0 - 0.0
23/07:30pm 18.4 18.0 17.1 92 0.8 SSE 15 19 8 10 1010.9 - 0.0
23/07:00pm 18.4 19.0 16.9 91 0.9 SSE 9 13 5 7 1011.2 - 0.0
23/06:30pm 18.6 18.9 16.9 90 1.0 SE 11 17 6 9 1011.2 - 0.0

Other Formats:

Comma delimited format used in spreadsheet applications
http://www.bom.gov.au/fwo/IDV60801/IDV60801.94933.axf

JavaScript Object Notation format (JSON) in row-major order
http://www.bom.gov.au/fwo/IDV60801/IDV60801.94933.json